Big Bear Station Historical Data
Daily Summary for September 29, 2017 Units:  English    Metric   Both
« Previous Day
Next Day »
Daily Weekly Monthly Yearly Custom
  High: Low: Average:
Temperature: 71.8 °F 35.8 °F 51.6 °F
Dew Point: 37.9 °F 25.8 °F 30.9 °F
Humidity: 81 % 19 % 50 %
Wind Speed: 6.3 mph 0.0 mph 1.1 mph
Wind Gust: -999.0 mph - -
Wind:- - WNW
Pressure: 30.21 in 30.14 in -
Precipitation: 0.00 in    
Historical Graphs
 
 
Tabular Data for September 29, 2017
Time Temperature Dew Point Pressure Wind Wind Speed Wind Gust Humidity Rainfall Rate (Hourly)
00:10 41.7 °F 26.3 °F 30.20 in Calm   -999.0 mph 54 % 0 in
00:25 41.4 °F 26.9 °F 30.19 in Calm   -999.0 mph 56 % 0 in
00:40 41.0 °F 26.1 °F 30.19 in Calm   -999.0 mph 55 % 0 in
00:56 40.6 °F 26.1 °F 30.19 in Calm   -999.0 mph 56 % 0 in
01:11 40.5 °F 27.7 °F 30.19 in Calm   -999.0 mph 60 % 0 in
01:26 39.9 °F 27.9 °F 30.19 in Calm   -999.0 mph 62 % 0 in
01:41 39.7 °F 26.5 °F 30.20 in Calm   -999.0 mph 59 % 0 in
01:56 39.4 °F 26.3 °F 30.19 in Calm   -999.0 mph 59 % 0 in
02:12 39.4 °F 27.1 °F 30.19 in Calm   -999.0 mph 61 % 0 in
02:27 38.7 °F 27.6 °F 30.19 in Calm   -999.0 mph 64 % 0 in
02:42 38.5 °F 28.1 °F 30.19 in Calm   -999.0 mph 66 % 0 in
02:57 38.3 °F 26.8 °F 30.18 in Calm   -999.0 mph 63 % 0 in
03:13 38.1 °F 27.4 °F 30.19 in Calm   -999.0 mph 65 % 0 in
03:28 38.1 °F 29.2 °F 30.18 in Calm   -999.0 mph 70 % 0 in
03:43 37.9 °F 31.0 °F 30.18 in Calm   -999.0 mph 76 % 0 in
03:58 37.8 °F 31.2 °F 30.18 in Calm   -999.0 mph 77 % 0 in
04:13 37.4 °F 31.2 °F 30.18 in Calm   -999.0 mph 78 % 0 in
04:29 37.2 °F 30.3 °F 30.18 in Calm   -999.0 mph 76 % 0 in
04:44 37.2 °F 29.3 °F 30.18 in Calm   -999.0 mph 73 % 0 in
04:59 37.0 °F 28.8 °F 30.18 in Calm   -999.0 mph 72 % 0 in
05:14 37.0 °F 29.5 °F 30.18 in Calm   -999.0 mph 74 % 0 in
05:29 36.5 °F 28.7 °F 30.19 in Calm   -999.0 mph 73 % 0 in
05:45 36.3 °F 28.8 °F 30.19 in Calm   -999.0 mph 74 % 0 in
06:00 36.3 °F 29.5 °F 30.19 in Calm   -999.0 mph 76 % 0 in
06:16 36.1 °F 29.6 °F 30.20 in Calm   -999.0 mph 77 % 0 in
06:31 36.0 °F 28.8 °F 30.20 in Calm   -999.0 mph 75 % 0 in
06:46 35.8 °F 28.7 °F 30.20 in Calm   -999.0 mph 75 % 0 in
07:01 35.8 °F 28.7 °F 30.20 in Calm   -999.0 mph 75 % 0 in
07:16 35.8 °F 29.6 °F 30.21 in Calm   -999.0 mph 78 % 0 in
07:32 35.8 °F 30.5 °F 30.21 in Calm   -999.0 mph 81 % 0 in
07:47 36.5 °F 30.9 °F 30.20 in Calm   -999.0 mph 80 % 0 in
08:02 38.3 °F 32.4 °F 30.21 in Calm   -999.0 mph 79 % 0 in
08:17 39.9 °F 33.3 °F 30.21 in Calm   -999.0 mph 77 % 0 in
08:33 40.6 °F 34.9 °F 30.21 in Calm   -999.0 mph 80 % 0 in
08:48 41.4 °F 33.1 °F 30.21 in Calm   -999.0 mph 72 % 0 in
09:04 42.6 °F 33.5 °F 30.21 in Calm   -999.0 mph 70 % 0 in
09:19 45.5 °F 34.8 °F 30.21 in Calm   -999.0 mph 66 % 0 in
09:34 47.5 °F 31.2 °F 30.21 in Calm   -999.0 mph 53 % 0 in
09:49 49.8 °F 32.4 °F 30.21 in Calm   -999.0 mph 51 % 0 in
10:04 54.3 °F 26.5 °F 30.21 in Calm   -999.0 mph 34 % 0 in
10:20 56.7 °F 27.9 °F 30.21 in NW 1.1 mph -999.0 mph 33 % 0 in
10:35 61.7 °F 28.2 °F 30.21 in NW 2.7 mph -999.0 mph 28 % 0 in
10:50 64.0 °F 27.5 °F 30.20 in NW 3.2 mph -999.0 mph 25 % 0 in
11:05 65.3 °F 28.6 °F 30.20 in NNW 3.7 mph -999.0 mph 25 % 0 in
11:20 67.1 °F 27.0 °F 30.20 in NNW 3.2 mph -999.0 mph 22 % 0 in
11:36 68.0 °F 29.9 °F 30.20 in NNE 3.2 mph -999.0 mph 24 % 0 in
11:51 67.8 °F 27.6 °F 30.19 in Calm   -999.0 mph 22 % 0 in
12:07 69.8 °F 26.9 °F 30.19 in NW 3.7 mph -999.0 mph 20 % 0 in
12:22 70.0 °F 25.8 °F 30.19 in West 2.7 mph -999.0 mph 19 % 0 in
12:37 70.7 °F 27.7 °F 30.18 in Calm   -999.0 mph 20 % 0 in
12:53 71.1 °F 34.5 °F 30.18 in NNE 3.7 mph -999.0 mph 26 % 0 in
13:08 71.2 °F 31.5 °F 30.17 in NW 3.7 mph -999.0 mph 23 % 0 in
13:24 71.1 °F 32.5 °F 30.17 in North 3.7 mph -999.0 mph 24 % 0 in
13:39 71.8 °F 33.1 °F 30.17 in NNW 2.7 mph -999.0 mph 24 % 0 in
13:54 71.4 °F 33.7 °F 30.17 in NNE 3.2 mph -999.0 mph 25 % 0 in
14:09 71.6 °F 30.7 °F 30.17 in NW 2.7 mph -999.0 mph 22 % 0 in
14:24 69.6 °F 31.2 °F 30.16 in NNW 3.2 mph -999.0 mph 24 % 0 in
14:40 70.2 °F 30.7 °F 30.16 in WNW 4.7 mph -999.0 mph 23 % 0 in
14:55 69.8 °F 31.4 °F 30.16 in West 2.2 mph -999.0 mph 24 % 0 in
15:10 69.4 °F 33.0 °F 30.16 in NNW 3.7 mph -999.0 mph 26 % 0 in
15:25 69.3 °F 29.9 °F 30.15 in WNW 3.2 mph -999.0 mph 23 % 0 in
15:41 68.7 °F 32.4 °F 30.15 in NNW 3.7 mph -999.0 mph 26 % 0 in
15:56 68.5 °F 31.3 °F 30.15 in NNW 4.7 mph -999.0 mph 25 % 0 in
16:11 68.2 °F 30.0 °F 30.14 in NNW 4.2 mph -999.0 mph 24 % 0 in
16:26 67.8 °F 35.2 °F 30.14 in NNW 4.2 mph -999.0 mph 30 % 0 in
16:42 67.6 °F 32.4 °F 30.14 in WNW 3.7 mph -999.0 mph 27 % 0 in
16:57 66.6 °F 31.6 °F 30.14 in NW 2.2 mph -999.0 mph 27 % 0 in
17:12 69.1 °F 34.6 °F 30.14 in NW 3.2 mph -999.0 mph 28 % 0 in
17:28 65.7 °F 33.4 °F 30.14 in NNW 6.3 mph -999.0 mph 30 % 0 in
17:43 63.9 °F 33.5 °F 30.14 in North 3.7 mph -999.0 mph 32 % 0 in
17:58 63.0 °F 33.4 °F 30.15 in Calm   -999.0 mph 33 % 0 in
18:13 61.3 °F 33.4 °F 30.15 in West 2.2 mph -999.0 mph 35 % 0 in
18:28 60.3 °F 31.8 °F 30.15 in Calm   -999.0 mph 34 % 0 in
18:44 58.8 °F 32.6 °F 30.16 in Calm   -999.0 mph 37 % 0 in
18:59 57.4 °F 33.3 °F 30.16 in Calm   -999.0 mph 40 % 0 in
19:14 56.3 °F 37.9 °F 30.16 in Calm   -999.0 mph 50 % 0 in
19:29 54.9 °F 37.1 °F 30.16 in Calm   -999.0 mph 51 % 0 in
19:44 53.8 °F 36.6 °F 30.16 in Calm   -999.0 mph 52 % 0 in
20:00 52.5 °F 36.3 °F 30.16 in Calm   -999.0 mph 54 % 0 in
20:15 51.6 °F 36.0 °F 30.16 in Calm   -999.0 mph 55 % 0 in
20:30 50.5 °F 35.4 °F 30.16 in Calm   -999.0 mph 56 % 0 in
20:45 50.0 °F 34.9 °F 30.16 in Calm   -999.0 mph 56 % 0 in
21:01 49.1 °F 33.6 °F 30.16 in Calm   -999.0 mph 55 % 0 in
21:16 48.4 °F 33.9 °F 30.16 in Calm   -999.0 mph 57 % 0 in
21:31 47.7 °F 32.8 °F 30.16 in Calm   -999.0 mph 56 % 0 in
21:46 47.3 °F 31.5 °F 30.16 in Calm   -999.0 mph 54 % 0 in
22:01 46.9 °F 30.7 °F 30.16 in Calm   -999.0 mph 53 % 0 in
22:17 46.4 °F 32.0 °F 30.16 in Calm   -999.0 mph 57 % 0 in
22:32 46.0 °F 31.6 °F 30.17 in South 1.1 mph -999.0 mph 57 % 0 in
22:47 45.7 °F 31.3 °F 30.16 in Calm   -999.0 mph 57 % 0 in
23:02 45.3 °F 31.0 °F 30.16 in Calm   -999.0 mph 57 % 0 in
23:17 44.8 °F 32.2 °F 30.17 in Calm   -999.0 mph 61 % 0 in
23:33 44.6 °F 33.2 °F 30.16 in Calm   -999.0 mph 64 % 0 in
23:48 44.2 °F 34.3 °F 30.17 in Calm   -999.0 mph 68 % 0 in
Big Bear CA Weather
Compliments of Weather Underground - 1.5 mb